createdAt,value
2019-04-27T00:00:20.748Z,25.37
2019-04-27T00:02:50.805Z,24.90
2019-04-27T00:05:24.350Z,23.53
2019-04-27T00:07:56.261Z,24.77
2019-04-27T00:10:30.037Z,25.73
2019-04-27T00:13:02.208Z,22.77
2019-04-27T00:15:45.676Z,24.80
2019-04-27T00:18:28.353Z,27.83
2019-04-27T00:21:00.726Z,19.47
2019-04-27T00:23:30.687Z,25.57
2019-04-27T00:25:59.068Z,21.30
2019-04-27T00:28:27.440Z,24.70
2019-04-27T00:30:56.346Z,30.13
2019-04-27T00:33:24.725Z,23.73
2019-04-27T00:36:03.569Z,26.07
2019-04-27T00:38:45.671Z,27.53
2019-04-27T00:41:19.249Z,27.50
2019-04-27T00:43:47.681Z,27.77
2019-04-27T00:46:16.297Z,26.70
2019-04-27T00:48:44.651Z,25.80
2019-04-27T00:51:14.474Z,26.87
2019-04-27T00:53:43.645Z,29.20
2019-04-27T00:56:23.647Z,34.57
2019-04-27T00:59:11.250Z,24.67
2019-04-27T01:01:43.511Z,27.33
2019-04-27T01:04:16.532Z,29.50
2019-04-27T01:06:44.817Z,30.43
2019-04-27T01:09:14.746Z,30.80
2019-04-27T01:11:43.465Z,24.77
2019-04-27T01:14:12.880Z,26.27
2019-04-27T01:16:41.657Z,33.00
2019-04-27T01:19:10.421Z,26.50
2019-04-27T01:21:39.643Z,27.50
2019-04-27T01:24:08.962Z,27.30
2019-04-27T01:26:41.935Z,29.07
2019-04-27T01:29:14.340Z,27.63
2019-04-27T01:31:42.709Z,24.70
2019-04-27T01:34:11.010Z,28.30
2019-04-27T01:36:39.346Z,24.33
2019-04-27T01:39:10.139Z,26.53
2019-04-27T01:41:39.105Z,28.07
2019-04-27T01:44:09.120Z,26.67
2019-04-27T01:46:39.573Z,24.33
2019-04-27T01:49:09.182Z,24.47
2019-04-27T01:51:39.128Z,22.63
2019-04-27T01:54:10.470Z,23.90
2019-04-27T01:56:39.482Z,23.70
2019-04-27T01:59:09.023Z,28.23
2019-04-27T02:01:39.985Z,30.43
2019-04-27T02:04:12.775Z,25.00
2019-04-27T02:06:41.631Z,25.40
2019-04-27T02:09:11.701Z,29.50
2019-04-27T02:11:40.152Z,30.83
2019-04-27T02:14:09.486Z,24.80
2019-04-27T02:16:39.177Z,24.63
2019-04-27T02:19:11.053Z,35.53
2019-04-27T02:21:39.176Z,28.50
2019-04-27T02:24:09.766Z,31.77
2019-04-27T02:26:39.734Z,30.10
2019-04-27T02:29:26.000Z,28.97
2019-04-27T02:32:14.040Z,28.80
2019-04-27T02:34:50.487Z,42.23
2019-04-27T02:37:20.082Z,29.00
2019-04-27T02:39:50.011Z,26.30
2019-04-27T02:42:20.016Z,32.90
2019-04-27T02:44:49.397Z,27.60
2019-04-27T02:47:20.460Z,25.53
2019-04-27T02:49:50.372Z,36.80
2019-04-27T02:52:22.869Z,33.63
2019-04-27T02:54:51.291Z,33.63
2019-04-27T02:57:20.066Z,28.83
2019-04-27T02:59:50.280Z,26.33
2019-04-27T03:02:26.537Z,26.80
2019-04-27T03:04:54.881Z,28.53
2019-04-27T03:07:23.219Z,24.80
2019-04-27T03:09:51.708Z,28.77
2019-04-27T03:12:21.665Z,30.40
2019-04-27T03:14:57.307Z,26.50
2019-04-27T03:17:42.001Z,26.20
2019-04-27T03:20:30.024Z,25.77
2019-04-27T03:23:00.693Z,25.73
2019-04-27T03:25:42.198Z,29.83
2019-04-27T03:28:11.967Z,27.27
2019-04-27T03:30:42.457Z,28.20
2019-04-27T03:33:11.951Z,20.93
2019-04-27T03:35:42.990Z,27.10
2019-04-27T03:38:12.553Z,29.77
2019-04-27T03:40:41.027Z,36.97
2019-04-27T03:43:16.529Z,24.83
2019-04-27T03:45:44.814Z,34.10
2019-04-27T03:48:13.109Z,28.13
2019-04-27T03:50:43.193Z,24.07
2019-04-27T03:53:15.907Z,25.13
2019-04-27T03:55:51.589Z,30.63
2019-04-27T03:58:21.884Z,29.80
2019-04-27T04:00:52.494Z,25.53
2019-04-27T04:03:20.895Z,30.23
2019-04-27T04:05:49.449Z,33.67
2019-04-27T04:08:19.436Z,23.10
2019-04-27T04:10:49.661Z,28.97
2019-04-27T04:13:20.439Z,36.47
2019-04-27T04:15:54.061Z,30.60
2019-04-27T04:18:23.020Z,24.63
2019-04-27T04:20:51.890Z,30.17
2019-04-27T04:23:20.629Z,23.37
2019-04-27T04:25:49.930Z,24.57
2019-04-27T04:28:19.889Z,37.93
2019-04-27T04:30:50.096Z,29.03
2019-04-27T04:33:20.535Z,23.83
2019-04-27T04:35:49.869Z,33.53
2019-04-27T04:38:20.524Z,27.50
2019-04-27T04:40:50.481Z,26.80
2019-04-27T04:43:20.544Z,25.33
2019-04-27T04:46:12.287Z,24.10
2019-04-27T04:48:40.351Z,23.57
2019-04-27T04:51:11.211Z,22.87
2019-04-27T04:53:40.623Z,22.93
2019-04-27T04:56:10.641Z,23.10
2019-04-27T04:58:39.745Z,21.47
2019-04-27T05:01:09.932Z,22.80
2019-04-27T05:03:38.935Z,21.57
2019-04-27T05:06:08.836Z,25.90
2019-04-27T05:08:39.261Z,32.13
2019-04-27T05:11:09.510Z,21.53
2019-04-27T05:13:39.360Z,25.83
2019-04-27T05:16:08.974Z,22.30
2019-04-27T05:18:39.266Z,22.63
2019-04-27T05:21:24.199Z,23.17
2019-04-27T05:23:52.553Z,18.50
2019-04-27T05:26:21.335Z,17.57
2019-04-27T05:28:49.620Z,17.10
2019-04-27T05:31:19.516Z,16.70
2019-04-27T05:33:49.029Z,14.57
2019-04-27T05:36:19.241Z,18.13
2019-04-27T05:38:49.686Z,17.20
2019-04-27T05:41:18.735Z,19.63
2019-04-27T05:43:58.990Z,16.87
2019-04-27T05:46:44.787Z,15.70
2019-04-27T05:49:23.594Z,16.37
2019-04-27T05:51:53.259Z,14.03
2019-04-27T05:54:21.550Z,12.63
2019-04-27T05:56:49.949Z,13.50
2019-04-27T05:59:19.837Z,11.40
2019-04-27T06:01:49.244Z,14.73
2019-04-27T06:04:19.302Z,10.57
2019-04-27T06:06:49.672Z,12.23
2019-04-27T06:09:19.395Z,13.70
2019-04-27T06:11:50.277Z,14.30
2019-04-27T06:14:19.235Z,12.73
2019-04-27T06:16:51.005Z,13.30
2019-04-27T06:19:19.357Z,12.37
2019-04-27T06:21:49.813Z,11.20
2019-04-27T06:24:18.641Z,16.30
2019-04-27T06:26:49.738Z,10.77
2019-04-27T06:29:17.124Z,11.93
2019-04-27T06:31:45.668Z,10.70
2019-04-27T06:34:14.022Z,8.37
2019-04-27T06:36:42.416Z,7.37
2019-04-27T06:39:10.790Z,11.20
2019-04-27T06:41:40.968Z,7.87
2019-04-27T06:44:11.290Z,9.90
2019-04-27T06:46:40.489Z,9.80
2019-04-27T06:49:10.827Z,8.13
2019-04-27T06:51:40.160Z,7.87
2019-04-27T06:54:09.274Z,10.60
2019-04-27T06:56:38.963Z,11.70
2019-04-27T06:59:08.740Z,8.20
2019-04-27T07:01:39.013Z,13.53
2019-04-27T07:04:08.857Z,10.43
2019-04-27T07:06:37.458Z,7.80
2019-04-27T07:09:09.605Z,7.17
2019-04-27T07:11:39.495Z,9.70
2019-04-27T07:14:11.170Z,6.20
2019-04-27T07:16:39.201Z,7.10
2019-04-27T07:19:09.377Z,9.77
2019-04-27T07:21:39.728Z,6.77
2019-04-27T07:24:09.002Z,7.17
2019-04-27T07:26:39.079Z,10.50
2019-04-27T07:29:09.388Z,7.13
2019-04-27T07:31:39.794Z,5.47
2019-04-27T07:34:09.385Z,7.30
2019-04-27T07:36:39.265Z,13.20
2019-04-27T07:39:11.134Z,7.63
2019-04-27T07:41:38.881Z,10.90
2019-04-27T07:44:16.188Z,8.27
2019-04-27T07:46:46.892Z,8.80
2019-04-27T07:49:17.072Z,8.83
2019-04-27T07:51:45.508Z,7.70
2019-04-27T07:54:14.900Z,11.77
2019-04-27T07:56:43.322Z,6.90
2019-04-27T07:59:11.628Z,9.03
2019-04-27T08:01:40.043Z,6.23
2019-04-27T08:04:09.428Z,12.00
2019-04-27T08:06:38.781Z,12.50
2019-04-27T08:09:09.214Z,6.47
2019-04-27T08:11:39.177Z,5.07
2019-04-27T08:14:08.680Z,15.77
2019-04-27T08:16:38.766Z,5.67
2019-04-27T08:19:07.431Z,4.13
2019-04-27T08:21:43.420Z,8.53
2019-04-27T08:24:05.919Z,8.20
2019-04-27T08:26:36.608Z,6.73
2019-04-27T08:29:12.471Z,6.37
2019-04-27T08:31:42.387Z,9.67
2019-04-27T08:34:12.396Z,7.00
2019-04-27T08:36:40.841Z,14.50
2019-04-27T08:39:09.890Z,9.70
2019-04-27T08:41:39.491Z,4.97
2019-04-27T08:44:09.703Z,7.57
2019-04-27T08:46:38.624Z,11.47
2019-04-27T08:49:08.397Z,10.27
2019-04-27T08:51:39.209Z,5.80
2019-04-27T08:54:09.091Z,6.43
2019-04-27T08:56:37.602Z,5.70
2019-04-27T08:59:05.912Z,11.77
2019-04-27T09:01:34.249Z,7.50
2019-04-27T09:04:02.600Z,13.20
2019-04-27T09:06:31.211Z,7.10
2019-04-27T09:09:03.751Z,17.10
2019-04-27T09:11:34.545Z,9.53
2019-04-27T09:14:05.272Z,6.10
2019-04-27T09:16:38.956Z,9.23
2019-04-27T09:19:14.749Z,6.60
2019-04-27T09:22:12.719Z,5.70
2019-04-27T09:24:30.886Z,6.07
2019-04-27T09:26:59.629Z,6.20
2019-04-27T09:29:29.864Z,6.00
2019-04-27T09:31:59.631Z,6.50
2019-04-27T09:34:28.617Z,16.97
2019-04-27T09:36:56.903Z,8.33
2019-04-27T09:39:26.464Z,5.43
2019-04-27T09:41:57.053Z,5.43
2019-04-27T09:44:26.694Z,10.53
2019-04-27T09:46:56.094Z,6.00
2019-04-27T09:49:26.140Z,9.37
2019-04-27T09:51:55.687Z,7.33
2019-04-27T09:54:24.130Z,8.07
2019-04-27T09:56:52.427Z,7.47
2019-04-27T09:59:20.842Z,8.47
2019-04-27T10:01:49.142Z,8.00
2019-04-27T10:04:17.872Z,8.80
2019-04-27T10:06:48.585Z,9.00
2019-04-27T10:09:16.332Z,5.70
2019-04-27T10:11:44.643Z,5.90
2019-04-27T10:14:12.923Z,4.93
2019-04-27T10:16:41.240Z,6.23
2019-04-27T10:19:10.323Z,6.90
2019-04-27T10:21:38.756Z,5.30
2019-04-27T10:24:07.031Z,6.20
2019-04-27T10:26:36.226Z,7.17
2019-04-27T10:29:06.177Z,7.13
2019-04-27T10:31:34.528Z,7.60
2019-04-27T10:34:03.896Z,7.17
2019-04-27T10:36:38.944Z,7.20
2019-04-27T10:39:09.026Z,3.63
2019-04-27T10:41:37.318Z,8.70
2019-04-27T10:44:07.567Z,4.73
2019-04-27T10:46:35.982Z,5.10
2019-04-27T10:49:05.910Z,6.10
2019-04-27T10:51:34.390Z,4.13
2019-04-27T10:54:03.273Z,5.23
2019-04-27T10:56:31.548Z,6.10
2019-04-27T10:58:59.838Z,4.20
2019-04-27T11:01:28.222Z,1.90
2019-04-27T11:04:05.976Z,1.27
2019-04-27T11:06:35.523Z,4.10
2019-04-27T11:09:09.028Z,2.03
2019-04-27T11:11:37.338Z,4.40
2019-04-27T11:14:06.905Z,3.80
2019-04-27T11:16:35.684Z,4.77
2019-04-27T11:19:06.605Z,2.87
2019-04-27T11:21:34.979Z,4.63
2019-04-27T11:24:03.349Z,4.03
2019-04-27T11:26:31.734Z,3.37
2019-04-27T11:29:00.090Z,3.20
2019-04-27T11:31:28.438Z,6.93
2019-04-27T11:33:57.439Z,3.80
2019-04-27T11:36:30.176Z,6.67
2019-04-27T11:39:02.972Z,1.10
2019-04-27T11:41:31.261Z,5.13
2019-04-27T11:44:02.000Z,0.83
2019-04-27T11:46:31.112Z,10.63
2019-04-27T11:48:59.469Z,8.10
2019-04-27T11:51:28.418Z,2.20
2019-04-27T11:53:56.850Z,3.87
2019-04-27T11:56:27.297Z,3.33
2019-04-27T11:58:56.157Z,4.53
2019-04-27T12:01:24.522Z,10.90
2019-04-27T12:03:52.812Z,3.30
2019-04-27T12:06:21.093Z,7.50
2019-04-27T12:08:49.405Z,8.33
2019-04-27T12:11:17.799Z,6.83
2019-04-27T12:13:46.232Z,6.33
2019-04-27T12:16:15.599Z,8.53
2019-04-27T12:18:48.856Z,3.80
2019-04-27T12:21:14.655Z,7.10
2019-04-27T12:23:42.964Z,6.03
2019-04-27T12:26:12.916Z,1.97
2019-04-27T12:28:45.977Z,6.00
2019-04-27T12:31:18.863Z,7.97
2019-04-27T12:33:47.148Z,2.40
2019-04-27T12:36:15.797Z,6.30
2019-04-27T12:38:44.330Z,3.77
2019-04-27T12:41:12.662Z,4.23
2019-04-27T12:43:40.987Z,13.87
2019-04-27T12:46:09.271Z,4.00
2019-04-27T12:48:37.630Z,4.40
2019-04-27T12:51:06.035Z,4.20
2019-04-27T12:53:52.193Z,6.63
2019-04-27T12:56:20.065Z,5.70
2019-04-27T12:58:59.319Z,7.20
2019-04-27T13:01:29.101Z,4.90
2019-04-27T13:03:59.295Z,5.67
2019-04-27T13:06:28.218Z,6.13
2019-04-27T13:08:56.500Z,6.40
2019-04-27T13:11:26.523Z,5.23
2019-04-27T13:13:57.196Z,30.37
2019-04-27T13:16:26.847Z,12.07
2019-04-27T13:18:57.507Z,13.00
2019-04-27T13:21:26.326Z,6.03
2019-04-27T13:24:03.698Z,13.90
2019-04-27T13:26:24.702Z,14.13
2019-04-27T13:28:53.159Z,7.43
2019-04-27T13:31:21.714Z,8.33
2019-04-27T13:33:49.995Z,6.33
2019-04-27T13:36:18.331Z,7.27
2019-04-27T13:38:46.768Z,11.43
2019-04-27T13:41:27.481Z,8.83
2019-04-27T13:43:45.161Z,13.67
2019-04-27T13:46:20.864Z,12.50
2019-04-27T13:49:09.183Z,10.43
2019-04-27T13:51:39.241Z,15.43
2019-04-27T13:54:17.191Z,7.97
2019-04-27T13:56:38.573Z,7.73
2019-04-27T13:59:07.696Z,10.00
2019-04-27T14:01:36.249Z,11.80
2019-04-27T14:04:04.841Z,7.90
2019-04-27T14:06:35.361Z,8.70
2019-04-27T14:09:04.506Z,14.37
2019-04-27T14:11:33.052Z,14.20
2019-04-27T14:14:01.344Z,10.77
2019-04-27T14:16:29.632Z,13.07
2019-04-27T14:18:59.411Z,8.43
2019-04-27T14:21:29.470Z,12.17
2019-04-27T14:23:58.591Z,19.80
2019-04-27T14:26:30.159Z,10.63
2019-04-27T14:28:58.475Z,25.20
2019-04-27T14:31:26.834Z,12.70
2019-04-27T14:33:55.264Z,13.53
2019-04-27T14:36:23.755Z,17.30
2019-04-27T14:38:52.334Z,10.73
2019-04-27T14:41:21.414Z,7.37
2019-04-27T14:44:04.911Z,9.73
2019-04-27T14:46:20.251Z,11.30
2019-04-27T14:48:48.519Z,10.57
2019-04-27T14:51:18.662Z,9.80
2019-04-27T14:53:48.861Z,10.27
2019-04-27T14:56:18.186Z,19.53
2019-04-27T14:58:46.740Z,10.50
2019-04-27T15:01:18.805Z,13.40
2019-04-27T15:03:47.597Z,18.30
2019-04-27T15:06:17.550Z,10.83
2019-04-27T15:08:47.066Z,22.87
2019-04-27T15:11:19.244Z,18.77
2019-04-27T15:13:48.682Z,9.30
2019-04-27T15:16:17.248Z,22.90
2019-04-27T15:18:52.650Z,11.40
2019-04-27T15:21:21.041Z,11.93
2019-04-27T15:23:49.509Z,10.53
2019-04-27T15:26:22.468Z,5.67
2019-04-27T15:28:51.288Z,13.23
2019-04-27T15:31:30.738Z,6.70
2019-04-27T15:34:06.674Z,13.63
2019-04-27T15:36:39.501Z,9.37
2019-04-27T15:39:22.594Z,11.50
2019-04-27T15:41:51.312Z,6.67
2019-04-27T15:44:19.603Z,10.93
2019-04-27T15:46:48.010Z,15.33
2019-04-27T15:49:17.939Z,5.13
2019-04-27T15:51:46.584Z,7.23
2019-04-27T15:54:15.755Z,10.77
2019-04-27T15:56:44.619Z,4.97
2019-04-27T15:59:13.083Z,10.50
2019-04-27T16:01:41.530Z,3.53
2019-04-27T16:04:12.812Z,9.70
2019-04-27T16:06:42.807Z,5.60
2019-04-27T16:09:25.377Z,5.43
2019-04-27T16:11:58.371Z,6.63
2019-04-27T16:14:22.751Z,8.90
2019-04-27T16:16:51.138Z,17.23
2019-04-27T16:19:19.553Z,9.03
2019-04-27T16:21:53.518Z,10.93
2019-04-27T16:24:21.177Z,10.07
2019-04-27T16:26:53.911Z,3.87
2019-04-27T16:29:18.670Z,2.60
2019-04-27T16:31:48.086Z,1.80
2019-04-27T16:34:18.370Z,3.73
2019-04-27T16:36:46.760Z,7.27
2019-04-27T16:39:15.123Z,4.60
2019-04-27T16:41:43.429Z,1.70
2019-04-27T16:44:11.733Z,1.90
2019-04-27T16:46:43.065Z,3.33
2019-04-27T16:49:14.050Z,2.20
2019-04-27T16:51:40.444Z,2.20
2019-04-27T16:54:11.217Z,3.87
2019-04-27T16:56:38.826Z,4.50
2019-04-27T16:59:26.770Z,2.30
2019-04-27T17:01:41.769Z,3.73
2019-04-27T17:04:11.227Z,3.50
2019-04-27T17:06:39.186Z,4.47
2019-04-27T17:09:11.357Z,4.87
2019-04-27T17:11:38.770Z,6.10
2019-04-27T17:14:09.461Z,6.70
2019-04-27T17:16:55.643Z,3.37
2019-04-27T17:19:25.596Z,2.57
2019-04-27T17:21:53.861Z,8.93
2019-04-27T17:24:41.976Z,10.50
2019-04-27T17:27:05.748Z,11.30
2019-04-27T17:29:35.749Z,5.90
2019-04-27T17:32:04.451Z,8.57
2019-04-27T17:34:32.986Z,3.13
2019-04-27T17:37:01.455Z,7.70
2019-04-27T17:39:30.070Z,4.83
2019-04-27T17:41:58.805Z,6.40
2019-04-27T17:44:28.839Z,2.60
2019-04-27T17:46:57.279Z,6.23
2019-04-27T17:49:25.558Z,4.40
2019-04-27T17:51:53.973Z,4.80
2019-04-27T17:54:22.267Z,9.07
2019-04-27T17:56:52.458Z,5.37
2019-04-27T17:59:21.090Z,6.70
2019-04-27T18:01:49.827Z,9.63
2019-04-27T18:04:20.262Z,8.43
2019-04-27T18:06:49.541Z,6.40
2019-04-27T18:09:19.207Z,6.30
2019-04-27T18:11:48.597Z,10.67
2019-04-27T18:14:19.266Z,14.83
2019-04-27T18:16:48.270Z,11.47
2019-04-27T18:19:21.204Z,28.60
2019-04-27T18:22:03.757Z,11.73
2019-04-27T18:24:38.019Z,26.87
2019-04-27T18:27:10.808Z,9.77
2019-04-27T18:29:39.087Z,9.87
2019-04-27T18:32:08.856Z,6.87
2019-04-27T18:34:38.954Z,4.50
2019-04-27T18:37:07.423Z,9.80
2019-04-27T18:39:35.807Z,5.87
2019-04-27T18:42:05.059Z,5.90
2019-04-27T18:44:33.746Z,4.07
2019-04-27T18:47:02.681Z,4.77
2019-04-27T18:49:35.605Z,4.63
2019-04-27T18:52:08.895Z,5.20
2019-04-27T18:54:41.789Z,3.43
2019-04-27T18:57:10.796Z,5.17
2019-04-27T18:59:38.185Z,7.70
2019-04-27T19:02:08.294Z,17.53
2019-04-27T19:04:36.661Z,10.57
2019-04-27T19:07:05.093Z,8.40
2019-04-27T19:09:33.370Z,8.13
2019-04-27T19:12:01.698Z,8.67
2019-04-27T19:14:30.013Z,5.60
2019-04-27T19:16:58.860Z,12.93
2019-04-27T19:19:28.078Z,3.20
2019-04-27T19:21:56.494Z,16.33
2019-04-27T19:24:24.895Z,2.93
2019-04-27T19:26:58.750Z,3.83
2019-04-27T19:29:29.279Z,6.20
2019-04-27T19:31:59.348Z,11.47
2019-04-27T19:34:28.669Z,6.37
2019-04-27T19:36:59.073Z,6.10
2019-04-27T19:39:28.621Z,6.67
2019-04-27T19:42:01.351Z,6.53
2019-04-27T19:44:28.959Z,8.43
2019-04-27T19:46:57.451Z,4.73
2019-04-27T19:49:25.725Z,9.17
2019-04-27T19:51:54.255Z,8.30
2019-04-27T19:54:22.546Z,5.97
2019-04-27T19:56:50.906Z,10.77
2019-04-27T19:59:28.039Z,3.50
2019-04-27T20:01:58.428Z,3.80
2019-04-27T20:04:28.420Z,6.77
2019-04-27T20:06:56.729Z,5.03
2019-04-27T20:09:26.825Z,7.37
2019-04-27T20:11:55.333Z,4.20
2019-04-27T20:14:23.624Z,8.23
2019-04-27T20:16:52.089Z,7.17
2019-04-27T20:19:21.602Z,13.70
2019-04-27T20:21:50.856Z,4.50
2019-04-27T20:24:19.257Z,4.90
2019-04-27T20:26:47.720Z,7.53
2019-04-27T20:29:16.104Z,13.30
2019-04-27T20:31:44.407Z,11.13
2019-04-27T20:34:12.860Z,9.43
2019-04-27T20:36:41.547Z,12.03
2019-04-27T20:39:11.601Z,9.23
2019-04-27T20:41:41.106Z,8.13
2019-04-27T20:44:12.309Z,11.00
2019-04-27T20:46:41.384Z,15.63
2019-04-27T20:49:11.798Z,11.63
2019-04-27T20:51:57.890Z,3.70
2019-04-27T20:54:26.185Z,9.43
2019-04-27T20:56:57.180Z,9.93
2019-04-27T20:59:24.585Z,5.47
2019-04-27T21:01:52.951Z,7.83
2019-04-27T21:04:25.859Z,4.97
2019-04-27T21:07:07.719Z,6.60
2019-04-27T21:09:36.105Z,9.50
2019-04-27T21:12:04.385Z,7.50
2019-04-27T21:14:32.725Z,6.97
2019-04-27T21:17:01.700Z,3.80
2019-04-27T21:19:31.970Z,10.07
2019-04-27T21:22:01.279Z,16.50
2019-04-27T21:24:31.114Z,10.27
2019-04-27T21:27:00.289Z,9.77
2019-04-27T21:29:28.779Z,6.27
2019-04-27T21:31:57.086Z,5.10
2019-04-27T21:34:25.651Z,18.27
2019-04-27T21:36:53.943Z,9.10
2019-04-27T21:39:22.228Z,11.03
2019-04-27T21:41:51.671Z,9.70
2019-04-27T21:44:21.772Z,8.07
2019-04-27T21:46:51.912Z,7.87
2019-04-27T21:49:22.239Z,10.77
2019-04-27T21:52:07.443Z,16.30
2019-04-27T21:54:37.518Z,11.77
2019-04-27T21:57:05.825Z,11.03
2019-04-27T21:59:34.098Z,8.00
2019-04-27T22:02:04.041Z,5.97
2019-04-27T22:04:32.398Z,6.60
2019-04-27T22:07:01.590Z,6.57
2019-04-27T22:09:29.866Z,7.53
2019-04-27T22:11:58.255Z,5.03
2019-04-27T22:14:26.607Z,6.43
2019-04-27T22:16:54.913Z,22.67
2019-04-27T22:19:23.388Z,10.20
2019-04-27T22:21:52.759Z,5.67
2019-04-27T22:24:22.837Z,4.73
2019-04-27T22:26:51.885Z,4.87
2019-04-27T22:29:22.170Z,19.20
2019-04-27T22:31:51.641Z,5.70
2019-04-27T22:34:21.055Z,4.60
2019-04-27T22:36:49.377Z,4.33
2019-04-27T22:39:25.155Z,4.77
2019-04-27T22:42:12.139Z,7.30
2019-04-27T22:44:44.099Z,6.60
2019-04-27T22:47:13.004Z,7.47
2019-04-27T22:49:41.421Z,6.63
2019-04-27T22:52:11.662Z,8.03
2019-04-27T22:54:42.126Z,10.90
2019-04-27T22:57:12.214Z,4.23
2019-04-27T22:59:48.147Z,4.90
2019-04-27T23:02:21.775Z,5.67
2019-04-27T23:05:01.971Z,10.23
2019-04-27T23:07:31.556Z,7.00
2019-04-27T23:10:01.498Z,15.50
2019-04-27T23:12:31.679Z,5.87
2019-04-27T23:15:00.351Z,9.13
2019-04-27T23:17:32.951Z,10.73
2019-04-27T23:20:01.558Z,11.27
2019-04-27T23:22:31.515Z,6.60
2019-04-27T23:25:01.133Z,10.63
2019-04-27T23:27:31.716Z,6.63
2019-04-27T23:30:01.409Z,20.37
2019-04-27T23:32:32.156Z,5.97
2019-04-27T23:35:00.501Z,6.10
2019-04-27T23:37:29.612Z,6.97
2019-04-27T23:39:58.520Z,4.20
2019-04-27T23:42:26.940Z,8.10
2019-04-27T23:44:55.223Z,7.97
2019-04-27T23:47:24.457Z,5.33
2019-04-27T23:49:52.802Z,6.43
2019-04-27T23:52:38.831Z,16.20
2019-04-27T23:55:07.109Z,9.20
2019-04-27T23:57:35.531Z,9.33
